createdAt,value
2024-03-12T00:00:59.841Z,4.30
2024-03-12T00:03:28.911Z,3.92
2024-03-12T00:06:00.853Z,3.67
2024-03-12T00:08:29.010Z,4.32
2024-03-12T00:10:56.387Z,3.58
2024-03-12T00:13:24.401Z,4.20
2024-03-12T00:15:51.427Z,3.50
2024-03-12T00:18:18.398Z,3.50
2024-03-12T00:20:46.838Z,6.45
2024-03-12T00:23:13.735Z,5.60
2024-03-12T00:25:41.880Z,6.22
2024-03-12T00:28:10.017Z,5.90
2024-03-12T00:30:39.276Z,5.25
2024-03-12T00:33:06.826Z,5.63
2024-03-12T00:35:35.326Z,4.35
2024-03-12T00:38:05.388Z,3.63
2024-03-12T00:40:35.618Z,2.60
2024-03-12T00:43:04.076Z,2.50
2024-03-12T00:45:38.191Z,2.45
2024-03-12T00:48:14.496Z,3.45
2024-03-12T00:50:43.779Z,4.60
2024-03-12T00:53:12.597Z,4.45
2024-03-12T00:55:41.698Z,3.97
2024-03-12T00:58:11.726Z,4.20
2024-03-12T01:00:40.940Z,2.65
2024-03-12T01:03:09.688Z,2.55
2024-03-12T01:05:40.266Z,2.65
2024-03-12T01:08:09.428Z,2.88
2024-03-12T01:10:37.181Z,3.42
2024-03-12T01:13:10.247Z,3.33
2024-03-12T01:18:05.081Z,3.25
2024-03-12T01:20:35.261Z,2.35
2024-03-12T01:23:02.676Z,2.40
2024-03-12T01:25:35.623Z,2.67
2024-03-12T01:28:03.609Z,2.85
2024-03-12T01:30:31.865Z,3.00
2024-03-12T01:32:59.475Z,3.53
2024-03-12T01:35:26.631Z,3.35
2024-03-12T01:37:54.372Z,3.55
2024-03-12T01:40:24.068Z,2.92
2024-03-12T01:42:58.223Z,3.47
2024-03-12T01:45:26.450Z,3.60
2024-03-12T01:47:58.935Z,4.00
2024-03-12T01:50:28.309Z,5.10
2024-03-12T01:52:57.829Z,4.03
2024-03-12T01:55:24.677Z,3.05
2024-03-12T01:57:52.987Z,2.67
2024-03-12T02:00:20.873Z,2.67
2024-03-12T02:02:52.608Z,2.50
2024-03-12T02:05:20.156Z,2.28
2024-03-12T02:07:50.020Z,2.72
2024-03-12T02:10:19.886Z,2.45
2024-03-12T02:12:47.783Z,2.85
2024-03-12T02:15:18.952Z,3.08
2024-03-12T02:17:46.576Z,3.30
2024-03-12T02:20:14.349Z,4.25
2024-03-12T02:22:41.629Z,3.63
2024-03-12T02:25:12.691Z,3.75
2024-03-12T02:27:43.161Z,3.55
2024-03-12T02:30:11.480Z,3.45
2024-03-12T02:32:42.373Z,3.42
2024-03-12T02:35:12.890Z,4.18
2024-03-12T02:37:40.432Z,4.25
2024-03-12T02:40:13.675Z,5.00
2024-03-12T02:42:44.831Z,5.20
2024-03-12T02:45:21.430Z,5.07
2024-03-12T02:47:48.927Z,4.13
2024-03-12T02:50:19.429Z,3.10
2024-03-12T02:52:46.925Z,3.63
2024-03-12T02:55:14.274Z,3.35
2024-03-12T02:57:41.252Z,3.85
2024-03-12T03:00:13.355Z,4.47
2024-03-12T03:02:45.574Z,4.72
2024-03-12T03:05:13.451Z,4.30
2024-03-12T03:07:41.540Z,4.20
2024-03-12T03:10:09.058Z,4.50
2024-03-12T03:12:36.083Z,4.50
2024-03-12T03:15:02.995Z,4.70
2024-03-12T03:17:30.352Z,4.68
2024-03-12T03:19:57.168Z,4.97
2024-03-12T03:22:23.911Z,4.93
2024-03-12T03:24:50.700Z,4.88
2024-03-12T03:27:18.164Z,3.65
2024-03-12T03:29:44.912Z,3.80
2024-03-12T03:32:11.721Z,3.75
2024-03-12T03:34:38.682Z,4.55
2024-03-12T03:37:05.856Z,4.30
2024-03-12T03:39:36.881Z,4.35
2024-03-12T03:42:04.035Z,4.30
2024-03-12T03:44:30.834Z,4.72
2024-03-12T03:46:57.609Z,4.78
2024-03-12T03:49:24.994Z,4.88
2024-03-12T03:51:53.189Z,4.18
2024-03-12T03:54:20.283Z,4.90
2024-03-12T03:56:47.086Z,4.30
2024-03-12T03:59:17.016Z,4.35
2024-03-12T04:01:44.308Z,3.63
2024-03-12T04:04:12.810Z,3.90
2024-03-12T04:06:40.577Z,3.95
2024-03-12T04:09:09.148Z,3.70
2024-03-12T04:11:36.007Z,3.78
2024-03-12T04:14:04.079Z,3.53
2024-03-12T04:16:33.755Z,2.80
2024-03-12T04:19:00.780Z,2.67
2024-03-12T04:21:28.043Z,2.90
2024-03-12T04:23:54.924Z,2.67
2024-03-12T04:26:21.783Z,3.15
2024-03-12T04:28:48.623Z,4.35
2024-03-12T04:31:15.690Z,4.05
2024-03-12T04:33:43.464Z,4.60
2024-03-12T04:36:14.859Z,7.50
2024-03-12T04:38:41.826Z,6.30
2024-03-12T04:41:08.607Z,5.35
2024-03-12T04:43:35.389Z,6.03
2024-03-12T04:46:02.274Z,6.72
2024-03-12T04:48:29.671Z,6.97
2024-03-12T04:50:56.479Z,7.03
2024-03-12T04:53:24.193Z,5.60
2024-03-12T04:55:50.985Z,5.38
2024-03-12T04:58:17.875Z,5.72
2024-03-12T05:00:44.793Z,5.00
2024-03-12T05:03:11.603Z,5.70
2024-03-12T05:05:38.440Z,4.53
2024-03-12T05:08:05.620Z,4.28
2024-03-12T05:10:32.353Z,4.50
2024-03-12T05:13:01.245Z,4.82
2024-03-12T05:15:28.259Z,4.80
2024-03-12T05:17:55.245Z,3.80
2024-03-12T05:20:24.791Z,3.58
2024-03-12T05:22:52.209Z,3.92
2024-03-12T05:25:28.535Z,5.72
2024-03-12T05:27:55.504Z,8.13
2024-03-12T05:30:24.324Z,6.00
2024-03-12T05:32:54.330Z,4.90
2024-03-12T05:35:23.018Z,4.53
2024-03-12T05:38:04.691Z,2.90
2024-03-12T05:40:58.542Z,3.03
2024-03-12T05:43:43.925Z,2.75
2024-03-12T05:46:29.318Z,2.75
2024-03-12T05:48:56.127Z,2.72
2024-03-12T05:51:23.155Z,3.25
2024-03-12T05:53:50.192Z,3.45
2024-03-12T05:56:19.736Z,3.33
2024-03-12T05:58:47.326Z,3.67
2024-03-12T06:01:14.767Z,3.22
2024-03-12T06:03:41.914Z,4.00
2024-03-12T06:06:09.185Z,4.07
2024-03-12T06:08:36.640Z,4.32
2024-03-12T06:11:03.833Z,5.47
2024-03-12T06:13:31.854Z,4.78
2024-03-12T06:15:58.938Z,5.28
2024-03-12T06:18:26.997Z,4.28
2024-03-12T06:20:53.886Z,4.25
2024-03-12T06:23:22.328Z,6.70
2024-03-12T06:25:49.367Z,4.47
2024-03-12T06:28:17.408Z,4.82
2024-03-12T06:30:44.767Z,5.65
2024-03-12T06:33:13.275Z,5.15
2024-03-12T06:35:42.638Z,5.18
2024-03-12T06:38:10.104Z,6.57
2024-03-12T06:40:36.965Z,7.90
2024-03-12T06:43:04.188Z,8.13
2024-03-12T06:45:32.628Z,10.35
2024-03-12T06:48:01.508Z,9.23
2024-03-12T06:50:28.825Z,8.77
2024-03-12T06:52:56.869Z,9.30
2024-03-12T06:55:28.085Z,8.65
2024-03-12T06:58:01.065Z,8.50
2024-03-12T07:00:37.725Z,9.23
2024-03-12T07:03:05.521Z,7.63
2024-03-12T07:05:37.380Z,7.43
2024-03-12T07:08:08.791Z,5.65
2024-03-12T07:10:38.272Z,5.18
2024-03-12T07:13:08.812Z,5.80
2024-03-12T07:15:37.343Z,4.70
2024-03-12T07:18:04.886Z,5.45
2024-03-12T07:20:32.426Z,5.10
2024-03-12T07:23:00.197Z,6.22
2024-03-12T07:25:27.170Z,6.35
2024-03-12T07:27:54.690Z,6.57
2024-03-12T07:30:26.002Z,6.35
2024-03-12T07:32:54.042Z,8.02
2024-03-12T07:35:21.367Z,9.02
2024-03-12T07:37:49.390Z,9.25
2024-03-12T07:40:19.554Z,8.55
2024-03-12T07:42:46.544Z,8.30
2024-03-12T07:45:16.134Z,8.80
2024-03-12T07:47:43.278Z,10.55
2024-03-12T07:50:12.643Z,14.73
2024-03-12T07:52:40.223Z,15.18
2024-03-12T07:55:07.749Z,18.48
2024-03-12T07:57:36.437Z,16.15
2024-03-12T08:00:12.493Z,13.68
2024-03-12T08:02:40.670Z,10.73
2024-03-12T08:05:07.582Z,12.63
2024-03-12T08:07:34.445Z,13.70
2024-03-12T08:10:01.276Z,12.63
2024-03-12T08:12:28.275Z,11.88
2024-03-12T08:14:55.042Z,9.73
2024-03-12T08:17:21.807Z,8.98
2024-03-12T08:19:51.574Z,7.95
2024-03-12T08:22:20.376Z,6.55
2024-03-12T08:24:47.366Z,5.47
2024-03-12T08:27:14.176Z,4.85
2024-03-12T08:29:40.934Z,5.05
2024-03-12T08:32:08.079Z,5.18
2024-03-12T08:34:34.930Z,4.72
2024-03-12T08:37:01.764Z,4.32
2024-03-12T08:39:29.653Z,3.83
2024-03-12T08:41:57.071Z,3.83
2024-03-12T08:44:24.766Z,4.30
2024-03-12T08:46:51.599Z,4.60
2024-03-12T08:49:18.514Z,4.90
2024-03-12T08:51:46.158Z,4.13
2024-03-12T08:54:15.046Z,4.18
2024-03-12T08:56:44.157Z,4.53
2024-03-12T08:59:14.969Z,3.55
2024-03-12T09:01:42.083Z,4.15
2024-03-12T09:04:09.558Z,3.75
2024-03-12T09:06:36.735Z,3.58
2024-03-12T09:09:03.783Z,4.40
2024-03-12T09:11:30.795Z,3.55
2024-03-12T09:13:57.773Z,3.38
2024-03-12T09:16:24.682Z,3.88
2024-03-12T09:18:51.738Z,3.63
2024-03-12T09:21:19.725Z,3.90
2024-03-12T09:23:56.328Z,3.85
2024-03-12T09:26:29.158Z,4.03
2024-03-12T09:28:56.506Z,4.07
2024-03-12T09:31:23.413Z,4.72
2024-03-12T09:33:52.986Z,3.80
2024-03-12T09:36:21.325Z,4.40
2024-03-12T09:38:52.033Z,3.83
2024-03-12T09:41:21.619Z,3.95
2024-03-12T09:43:49.721Z,4.10
2024-03-12T09:46:18.058Z,4.22
2024-03-12T09:48:46.905Z,4.10
2024-03-12T09:51:14.657Z,4.13
2024-03-12T09:53:48.047Z,3.40
2024-03-12T09:56:18.101Z,3.90
2024-03-12T09:58:46.499Z,3.97
2024-03-12T10:01:14.089Z,3.72
2024-03-12T10:03:41.937Z,3.83
2024-03-12T10:06:10.521Z,3.80
2024-03-12T10:08:37.782Z,3.80
2024-03-12T10:11:09.963Z,3.60
2024-03-12T10:13:39.650Z,3.67
2024-03-12T10:16:08.285Z,3.60
2024-03-12T10:18:36.195Z,3.80
2024-03-12T10:21:03.803Z,3.92
2024-03-12T10:23:42.174Z,4.22
2024-03-12T10:26:19.290Z,4.32
2024-03-12T10:28:47.065Z,4.47
2024-03-12T10:31:15.858Z,3.80
2024-03-12T10:33:49.900Z,3.70
2024-03-12T10:36:34.338Z,3.92
2024-03-12T10:39:07.409Z,4.18
2024-03-12T10:41:34.905Z,3.97
2024-03-12T10:44:08.831Z,3.83
2024-03-12T10:46:37.303Z,3.55
2024-03-12T10:49:11.346Z,3.63
2024-03-12T10:51:41.889Z,3.50
2024-03-12T10:54:22.719Z,3.30
2024-03-12T10:56:51.169Z,3.67
2024-03-12T10:59:20.048Z,3.30
2024-03-12T11:01:48.962Z,3.40
2024-03-12T11:04:17.082Z,2.97
2024-03-12T11:06:46.615Z,3.10
2024-03-12T11:09:22.150Z,3.35
2024-03-12T11:11:50.593Z,3.40
2024-03-12T11:14:17.539Z,2.78
2024-03-12T11:16:44.452Z,3.05
2024-03-12T11:19:20.344Z,2.30
2024-03-12T11:21:50.688Z,2.70
2024-03-12T11:24:31.629Z,2.63
2024-03-12T11:27:04.632Z,2.90
2024-03-12T11:30:06.565Z,2.97
2024-03-12T11:32:35.100Z,2.78
2024-03-12T11:35:29.133Z,2.80
2024-03-12T11:38:01.440Z,3.03
2024-03-12T11:40:31.911Z,3.17
2024-03-12T11:43:02.349Z,2.53
2024-03-12T11:45:43.602Z,2.80
2024-03-12T11:48:11.632Z,2.67
2024-03-12T11:50:44.117Z,2.60
2024-03-12T11:53:10.875Z,2.35
2024-03-12T11:55:53.803Z,2.65
2024-03-12T11:58:21.510Z,2.50
2024-03-12T12:00:52.054Z,2.47
2024-03-12T12:03:18.953Z,2.85
2024-03-12T12:05:45.962Z,2.78
2024-03-12T12:08:16.028Z,2.58
2024-03-12T12:10:43.386Z,2.78
2024-03-12T12:13:17.199Z,2.47
2024-03-12T12:16:02.895Z,2.67
2024-03-12T12:18:31.507Z,2.90
2024-03-12T12:21:02.826Z,2.75
2024-03-12T12:23:31.017Z,2.53
2024-03-12T12:25:58.777Z,2.85
2024-03-12T12:28:26.699Z,2.47
2024-03-12T12:31:00.379Z,2.63
2024-03-12T12:33:29.505Z,2.75
2024-03-12T12:35:58.910Z,2.40
2024-03-12T12:38:26.791Z,2.70
2024-03-12T12:40:56.726Z,2.78
2024-03-12T12:43:23.801Z,2.45
2024-03-12T12:45:58.406Z,2.78
2024-03-12T12:48:25.295Z,2.40
2024-03-12T12:50:58.464Z,2.40
2024-03-12T12:53:26.094Z,2.50
2024-03-12T12:56:00.591Z,2.38
2024-03-12T12:58:29.952Z,2.90
2024-03-12T13:01:05.246Z,2.38
2024-03-12T13:03:39.114Z,2.75
2024-03-12T13:06:17.102Z,2.33
2024-03-12T13:08:46.280Z,2.50
2024-03-12T13:11:18.181Z,2.70
2024-03-12T13:13:46.436Z,2.80
2024-03-12T13:16:15.460Z,2.55
2024-03-12T13:18:46.210Z,2.83
2024-03-12T13:21:15.775Z,2.30
2024-03-12T13:23:45.969Z,2.90
2024-03-12T13:26:14.293Z,2.85
2024-03-12T13:28:42.234Z,2.60
2024-03-12T13:31:11.300Z,2.83
2024-03-12T13:33:38.915Z,2.42
2024-03-12T13:36:06.828Z,2.47
2024-03-12T13:38:35.635Z,2.45
2024-03-12T13:41:02.429Z,2.67
2024-03-12T13:43:32.654Z,2.65
2024-03-12T13:45:59.626Z,2.88
2024-03-12T13:48:29.677Z,2.47
2024-03-12T13:51:00.742Z,2.17
2024-03-12T13:53:28.616Z,2.63
2024-03-12T13:55:57.110Z,2.63
2024-03-12T13:58:25.696Z,2.53
2024-03-12T14:00:53.338Z,2.80
2024-03-12T14:03:23.065Z,2.95
2024-03-12T14:05:50.975Z,2.80
2024-03-12T14:08:22.495Z,2.88
2024-03-12T14:10:51.133Z,2.72
2024-03-12T14:13:20.128Z,2.50
2024-03-12T14:15:50.140Z,2.65
2024-03-12T14:18:17.151Z,3.13
2024-03-12T14:20:44.200Z,2.65
2024-03-12T14:23:11.059Z,2.53
2024-03-12T14:25:38.659Z,2.53
2024-03-12T14:28:08.800Z,3.05
2024-03-12T14:30:35.611Z,2.65
2024-03-12T14:33:02.493Z,2.75
2024-03-12T14:35:30.245Z,2.85
2024-03-12T14:37:58.686Z,2.50
2024-03-12T14:40:26.691Z,2.80
2024-03-12T14:42:56.054Z,2.78
2024-03-12T14:45:25.730Z,2.53
2024-03-12T14:47:52.720Z,2.63
2024-03-12T14:50:19.580Z,2.72
2024-03-12T14:52:46.995Z,3.10
2024-03-12T14:55:14.483Z,2.85
2024-03-12T14:57:42.055Z,2.80
2024-03-12T15:00:10.997Z,2.85
2024-03-12T15:02:38.273Z,2.95
2024-03-12T15:05:12.403Z,3.08
2024-03-12T15:07:44.170Z,2.65
2024-03-12T15:10:11.755Z,2.60
2024-03-12T15:12:40.931Z,2.47
2024-03-12T15:15:13.038Z,2.65
2024-03-12T15:17:41.315Z,2.67
2024-03-12T15:20:11.146Z,2.90
2024-03-12T15:22:38.627Z,3.17
2024-03-12T15:25:11.996Z,2.78
2024-03-12T15:27:45.391Z,3.10
2024-03-12T15:30:13.067Z,3.33
2024-03-12T15:32:40.638Z,3.00
2024-03-12T15:35:12.082Z,3.45
2024-03-12T15:37:39.173Z,3.25
2024-03-12T15:40:09.008Z,3.20
2024-03-12T15:42:37.620Z,3.30
2024-03-12T15:45:10.921Z,4.10
2024-03-12T15:47:40.546Z,3.55
2024-03-12T15:50:08.544Z,3.35
2024-03-12T15:52:35.495Z,3.30
2024-03-12T15:55:05.444Z,3.00
2024-03-12T15:57:32.759Z,3.53
2024-03-12T16:00:07.898Z,3.25
2024-03-12T16:02:36.358Z,2.95
2024-03-12T16:05:06.357Z,3.42
2024-03-12T16:07:36.728Z,3.40
2024-03-12T16:10:09.451Z,3.30
2024-03-12T16:12:38.230Z,3.53
2024-03-12T16:15:06.946Z,3.08
2024-03-12T16:17:36.008Z,3.17
2024-03-12T16:20:13.115Z,3.42
2024-03-12T16:22:43.106Z,2.72
2024-03-12T16:25:10.520Z,3.55
2024-03-12T16:27:37.737Z,3.20
2024-03-12T16:30:05.569Z,3.20
2024-03-12T16:32:36.941Z,3.17
2024-03-12T16:35:05.124Z,3.28
2024-03-12T16:37:32.074Z,3.55
2024-03-12T16:39:58.931Z,3.60
2024-03-12T16:42:26.297Z,3.55
2024-03-12T16:44:53.491Z,4.53
2024-03-12T16:47:20.272Z,4.25
2024-03-12T16:49:48.270Z,4.43
2024-03-12T16:52:15.406Z,4.97
2024-03-12T16:54:42.966Z,4.55
2024-03-12T16:57:10.624Z,5.25
2024-03-12T16:59:37.967Z,4.65
2024-03-12T17:02:09.318Z,4.82
2024-03-12T17:04:38.153Z,4.78
2024-03-12T17:07:09.062Z,4.88
2024-03-12T17:09:38.470Z,4.60
2024-03-12T17:12:06.633Z,4.85
2024-03-12T17:14:36.269Z,4.93
2024-03-12T17:17:09.990Z,5.15
2024-03-12T17:19:38.291Z,4.93
2024-03-12T17:22:07.350Z,4.68
2024-03-12T17:24:35.725Z,5.20
2024-03-12T17:27:09.215Z,4.97
2024-03-12T17:32:06.132Z,4.60
2024-03-12T17:34:33.509Z,4.60
2024-03-12T17:37:05.170Z,4.47
2024-03-12T17:39:40.218Z,4.85
2024-03-12T17:42:09.618Z,5.22
2024-03-12T17:44:37.595Z,4.40
2024-03-12T17:47:09.233Z,5.03
2024-03-12T17:49:40.349Z,4.55
2024-03-12T17:52:11.969Z,4.55
2024-03-12T17:54:40.029Z,4.60
2024-03-12T17:57:26.065Z,4.53
2024-03-12T17:59:55.055Z,4.55
2024-03-12T18:02:23.054Z,4.60
2024-03-12T18:04:50.148Z,4.57
2024-03-12T18:07:25.756Z,5.10
2024-03-12T18:09:58.013Z,4.70
2024-03-12T18:12:25.540Z,4.43
2024-03-12T18:14:52.803Z,4.50
2024-03-12T18:17:21.550Z,4.00
2024-03-12T18:19:48.477Z,4.00
2024-03-12T18:22:17.257Z,3.85
2024-03-12T18:24:45.098Z,4.13
2024-03-12T18:27:12.148Z,3.97
2024-03-12T18:29:39.081Z,4.25
2024-03-12T18:32:07.165Z,4.78
2024-03-12T18:34:37.289Z,4.35
2024-03-12T18:37:06.870Z,4.45
2024-03-12T18:39:33.768Z,3.75
2024-03-12T18:45:36.976Z,4.28
2024-03-12T18:48:07.941Z,4.30
2024-03-12T18:50:35.098Z,4.60
2024-03-12T18:53:02.156Z,4.70
2024-03-12T18:55:29.947Z,4.40
2024-03-12T18:57:58.189Z,4.40
2024-03-12T19:00:29.924Z,4.63
2024-03-12T19:03:05.266Z,4.57
2024-03-12T19:05:36.801Z,4.10
2024-03-12T19:08:03.898Z,4.22
2024-03-12T19:10:31.550Z,4.35
2024-03-12T19:12:59.568Z,4.82
2024-03-12T19:15:34.253Z,5.30
2024-03-12T19:18:04.438Z,4.80
2024-03-12T19:20:32.692Z,4.57
2024-03-12T19:23:00.124Z,4.82
2024-03-12T19:25:27.286Z,4.60
2024-03-12T19:27:54.465Z,4.53
2024-03-12T19:30:22.023Z,4.78
2024-03-12T19:32:51.403Z,4.95
2024-03-12T19:35:19.472Z,4.82
2024-03-12T19:37:47.083Z,5.40
2024-03-12T19:40:17.833Z,4.85
2024-03-12T19:42:50.077Z,4.82
2024-03-12T19:45:24.103Z,4.35
2024-03-12T19:47:54.619Z,5.53
2024-03-12T19:50:24.002Z,4.93
2024-03-12T19:52:53.098Z,5.60
2024-03-12T19:55:26.000Z,6.15
2024-03-12T19:57:57.613Z,7.75
2024-03-12T20:00:30.870Z,6.55
2024-03-12T20:03:00.255Z,7.47
2024-03-12T20:05:31.312Z,6.00
2024-03-12T20:08:02.884Z,7.90
2024-03-12T20:10:30.533Z,7.07
2024-03-12T20:12:58.709Z,6.50
2024-03-12T20:15:25.853Z,7.85
2024-03-12T20:17:52.768Z,6.50
2024-03-12T20:20:19.774Z,7.82
2024-03-12T20:22:54.049Z,5.53
2024-03-12T20:25:25.700Z,5.90
2024-03-12T20:27:56.594Z,6.03
2024-03-12T20:30:28.865Z,6.53
2024-03-12T20:33:00.188Z,6.68
2024-03-12T20:35:32.906Z,5.90
2024-03-12T20:37:59.912Z,6.88
2024-03-12T20:40:28.389Z,5.90
2024-03-12T20:43:00.378Z,7.72
2024-03-12T20:45:27.966Z,6.63
2024-03-12T20:47:55.529Z,7.53
2024-03-12T20:50:22.561Z,7.95
2024-03-12T20:52:50.108Z,7.68
2024-03-12T20:55:17.762Z,8.07
2024-03-12T20:57:48.212Z,7.70
2024-03-12T21:00:24.853Z,8.90
2024-03-12T21:02:55.015Z,9.05
2024-03-12T21:05:22.285Z,9.70
2024-03-12T21:07:51.086Z,8.95
2024-03-12T21:10:17.977Z,9.07
2024-03-12T21:12:46.271Z,9.02
2024-03-12T21:15:16.763Z,8.88
2024-03-12T21:17:44.067Z,8.80
2024-03-12T21:20:29.395Z,9.13
2024-03-12T21:22:56.312Z,7.93
2024-03-12T21:25:23.259Z,8.43
2024-03-12T21:27:50.185Z,9.63
2024-03-12T21:30:19.870Z,8.57
2024-03-12T21:32:48.459Z,7.43
2024-03-12T21:35:16.697Z,8.50
2024-03-12T21:37:43.513Z,7.70
2024-03-12T21:40:13.754Z,8.25
2024-03-12T21:42:43.421Z,8.50
2024-03-12T21:45:10.988Z,8.07
2024-03-12T21:47:38.346Z,7.65
2024-03-12T21:50:09.609Z,8.48
2024-03-12T21:52:37.058Z,8.48
2024-03-12T21:55:07.107Z,8.63
2024-03-12T21:57:34.811Z,10.23
2024-03-12T22:00:01.571Z,9.38
2024-03-12T22:02:28.927Z,8.90
2024-03-12T22:04:55.706Z,9.88
2024-03-12T22:07:25.631Z,9.73
2024-03-12T22:09:52.465Z,9.38
2024-03-12T22:12:19.514Z,11.48
2024-03-12T22:14:46.519Z,10.32
2024-03-12T22:17:13.325Z,9.65
2024-03-12T22:19:40.175Z,10.23
2024-03-12T22:22:10.102Z,10.95
2024-03-12T22:24:38.948Z,10.68
2024-03-12T22:27:07.961Z,10.73
2024-03-12T22:29:34.775Z,10.70
2024-03-12T22:32:02.452Z,11.32
2024-03-12T22:34:30.048Z,10.32
2024-03-12T22:36:57.204Z,9.95
2024-03-12T22:39:24.323Z,10.20
2024-03-12T22:41:51.372Z,10.50
2024-03-12T22:44:18.316Z,11.00
2024-03-12T22:46:46.068Z,10.10
2024-03-12T22:49:13.215Z,10.75
2024-03-12T22:51:41.543Z,10.38
2024-03-12T22:54:10.580Z,10.82
2024-03-12T22:56:37.668Z,9.63
2024-03-12T22:59:05.383Z,10.52
2024-03-12T23:01:34.265Z,11.35
2024-03-12T23:04:03.295Z,10.88
2024-03-12T23:06:32.362Z,10.90
2024-03-12T23:08:59.344Z,10.07
2024-03-12T23:11:28.164Z,11.20
2024-03-12T23:13:54.960Z,11.27
2024-03-12T23:16:21.892Z,11.77
2024-03-12T23:18:49.559Z,10.38
2024-03-12T23:21:18.195Z,11.25
2024-03-12T23:23:46.789Z,9.98
2024-03-12T23:26:17.483Z,9.70
2024-03-12T23:28:44.403Z,9.48
2024-03-12T23:31:11.282Z,9.60
2024-03-12T23:33:40.294Z,9.55
2024-03-12T23:36:08.518Z,9.98
2024-03-12T23:38:35.946Z,10.15
2024-03-12T23:41:03.046Z,10.30
2024-03-12T23:43:29.846Z,10.27
2024-03-12T23:45:57.605Z,10.82
2024-03-12T23:48:25.423Z,10.95
2024-03-12T23:50:52.408Z,10.93
2024-03-12T23:53:19.182Z,11.00
2024-03-12T23:55:46.081Z,9.23
2024-03-12T23:58:13.221Z,8.45
